Time;durP1;ratioP1;P1;durP2;ratioP2;P2;SDS_P1;SDS_P2;PMS_P1;PMS_P2;Temp;Humidity;BMP_temperature;BMP_pressure;BME280_temperature;BME280_humidity;BME280_pressure;Samples;Min_cycle;Max_cycle;Signal;HPM_P1;HPM_P2
2022/05/05 00:04:51;;;;;;;10.07;2.70;;;;;;;10.94;77.86;99751.00;10372091;28;20049;-73
2022/05/05 00:09:52;;;;;;;10.30;2.47;;;;;;;10.54;77.73;99689.38;10356654;28;20415;-74
2022/05/05 00:14:53;;;;;;;18.20;2.83;;;;;;;11.64;77.88;99853.34;10348986;28;20069;-73
2022/05/05 00:19:53;;;;;;;21.85;3.45;;;;;;;11.97;77.98;99892.84;10287620;28;1580579;-75
2022/05/05 00:24:54;;;;;;;18.25;2.90;;;;;;;11.71;77.83;99840.91;10335426;28;20137;-74
2022/05/05 00:29:55;;;;;;;23.05;3.78;;;;;;;11.86;77.66;99860.38;10334846;28;20034;-74
2022/05/05 00:34:56;;;;;;;11.10;2.75;;;;;;;11.90;77.84;99878.63;10334184;28;20445;-73
2022/05/05 00:39:57;;;;;;;20.67;3.05;;;;;;;11.62;77.81;99842.88;10334410;28;20457;-74
2022/05/05 00:45:00;;;;;;;22.65;3.30;;;;;;;11.74;77.85;99884.97;10334117;28;20041;-72
2022/05/05 00:50:01;;;;;;;21.45;3.20;;;;;;;11.75;78.08;99895.41;10333526;28;20045;-72
2022/05/05 00:55:02;;;;;;;22.15;3.10;;;;;;;10.27;77.82;99656.34;10333907;28;20053;-72
2022/05/05 01:00:03;;;;;;;14.50;3.05;;;;;;;11.42;78.60;99850.59;10333935;28;20133;-72
2022/05/05 01:05:05;;;;;;;19.88;3.38;;;;;;;11.71;78.94;99893.31;10334081;28;20052;-74
2022/05/05 01:10:06;;;;;;;14.15;2.83;;;;;;;10.60;78.58;99712.56;10333453;28;20173;-73
2022/05/05 01:15:08;;;;;;;13.70;3.25;;;;;;;11.59;78.67;99875.16;10333407;28;20088;-72
2022/05/05 01:20:13;;;;;;;17.52;2.67;;;;;;;11.80;79.06;99892.19;10373921;28;20171;-73
2022/05/05 01:30:34;;;;;;;12.23;2.90;;;;;;;11.69;78.65;99882.03;10372720;28;20068;-74
2022/05/05 01:35:34;;;;;;;14.25;2.42;;;;;;;11.34;79.02;99832.09;10371131;28;20077;-74
2022/05/05 01:40:36;;;;;;;23.83;2.70;;;;;;;10.80;79.62;99746.53;10372795;28;20088;-72
2022/05/05 01:45:38;;;;;;;18.50;3.00;;;;;;;11.76;79.92;99905.06;10372489;28;20478;-74
2022/05/05 01:50:39;;;;;;;23.77;2.92;;;;;;;11.61;80.00;99899.75;10372884;28;20056;-74
2022/05/05 01:55:40;;;;;;;21.80;3.33;;;;;;;11.68;80.61;99907.81;10371787;28;20172;-72
2022/05/05 02:00:41;;;;;;;13.98;2.88;;;;;;;11.31;81.02;99842.28;10371914;28;20048;-74
2022/05/05 02:05:44;;;;;;;16.15;2.38;;;;;;;11.72;80.91;99914.41;10371771;28;20034;-73
2022/05/05 02:10:45;;;;;;;15.30;3.00;;;;;;;11.19;81.13;99812.69;10358520;28;20084;-74
2022/05/05 02:15:46;;;;;;;9.82;2.65;;;;;;;12.00;81.55;99919.91;10371148;28;20398;-74
2022/05/05 02:20:47;;;;;;;11.80;3.00;;;;;;;12.01;81.08;99923.38;10371868;28;20049;-74
2022/05/05 02:25:48;;;;;;;14.70;2.80;;;;;;;12.16;81.08;99934.81;10354097;28;20550;-73
2022/05/05 02:30:48;;;;;;;10.15;2.80;;;;;;;11.48;81.25;99819.78;10371514;28;20046;-74
2022/05/05 02:38:42;;;;;;;10.35;2.58;;;;;;;12.35;80.97;99949.34;10371152;28;20053;-74
2022/05/05 02:41:10;;;;;;;9.25;2.47;;;;;;;12.31;80.59;99935.59;10371970;28;20048;-73
2022/05/05 02:46:11;;;;;;;12.70;3.05;;;;;;;12.14;80.76;99907.53;10371510;28;20088;-74
2022/05/05 02:51:12;;;;;;;13.63;2.97;;;;;;;12.46;81.39;99951.53;10371303;28;20077;-73
2022/05/05 02:56:12;;;;;;;18.52;2.97;;;;;;;12.18;81.87;99918.66;10371415;28;20156;-73
2022/05/05 03:01:13;;;;;;;18.63;3.03;;;;;;;12.31;81.94;99919.59;10375008;28;20124;-73
2022/05/05 03:06:14;;;;;;;14.57;3.95;;;;;;;11.33;80.96;99755.16;10378398;28;20037;-73
2022/05/05 03:11:15;;;;;;;18.02;6.05;;;;;;;12.42;81.08;99928.94;10377764;28;20038;-73
2022/05/05 03:16:16;;;;;;;13.45;4.45;;;;;;;12.75;80.90;99968.41;10377831;28;20498;-73
2022/05/05 03:21:17;;;;;;;16.20;5.13;;;;;;;12.82;81.18;99979.13;10375658;28;20612;-73
2022/05/05 03:26:17;;;;;;;11.23;3.13;;;;;;;12.63;81.85;99941.44;10378633;28;20181;-73
2022/05/05 03:31:18;;;;;;;12.48;3.22;;;;;;;12.91;81.49;99978.78;10354612;28;20045;-74
2022/05/05 03:36:19;;;;;;;10.45;2.70;;;;;;;12.89;81.68;99966.66;10375418;28;20052;-74
2022/05/05 03:41:21;;;;;;;11.57;2.35;;;;;;;12.88;81.94;99957.03;10373771;28;20040;-73
2022/05/05 03:46:21;;;;;;;9.57;2.70;;;;;;;12.83;82.72;99964.75;10375380;28;20081;-72
2022/05/05 03:51:22;;;;;;;11.52;3.10;;;;;;;12.83;82.37;99970.91;10373958;28;20069;-72
2022/05/05 03:56:23;;;;;;;11.15;3.25;;;;;;;12.02;82.61;99842.50;10369793;28;20046;-74
2022/05/05 04:01:24;;;;;;;12.70;2.80;;;;;;;11.51;82.69;99741.44;10373691;28;20034;-73
2022/05/05 04:06:25;;;;;;;9.93;2.83;;;;;;;12.89;83.31;99970.19;10347558;28;20042;-72
2022/05/05 04:11:26;;;;;;;13.23;3.45;;;;;;;12.70;83.55;99939.66;10333897;28;20038;-72
2022/05/05 04:16:26;;;;;;;11.02;3.35;;;;;;;12.39;83.95;99886.72;10339911;28;20064;-75
2022/05/05 04:21:27;;;;;;;12.40;3.30;;;;;;;12.75;84.37;99960.41;10373197;28;20041;-72
2022/05/05 04:26:29;;;;;;;10.82;4.65;;;;;;;11.88;84.60;99826.41;10373110;28;20030;-72
2022/05/05 04:31:30;;;;;;;23.17;16.33;;;;;;;12.52;84.43;99921.44;10369289;28;20461;-73
2022/05/05 04:36:34;;;;;;;17.95;10.27;;;;;;;11.99;84.68;99841.03;10359817;28;20057;-73
2022/05/05 04:41:35;;;;;;;11.20;4.10;;;;;;;12.82;84.28;99963.13;10364255;28;20046;-73
2022/05/05 04:46:36;;;;;;;8.02;2.75;;;;;;;12.82;84.69;99957.78;10392675;28;20128;-74
2022/05/05 04:51:37;;;;;;;15.43;6.57;;;;;;;12.90;84.83;99950.50;10374084;28;20414;-73
2022/05/05 04:56:38;;;;;;;13.18;4.30;;;;;;;12.07;84.94;99816.97;10374528;28;20529;-73
2022/05/05 05:01:39;;;;;;;13.98;4.88;;;;;;;12.31;85.18;99842.38;10373485;28;20053;-73
2022/05/05 05:06:40;;;;;;;9.18;3.45;;;;;;;12.96;85.41;99928.38;10373682;28;20044;-74
2022/05/05 05:11:40;;;;;;;13.40;4.15;;;;;;;11.54;86.09;99706.47;10374582;28;20064;-73
2022/05/05 05:16:41;;;;;;;9.68;3.67;;;;;;;13.02;86.45;99945.47;10351619;28;20149;-73
2022/05/05 05:21:42;;;;;;;22.00;4.25;;;;;;;13.01;86.48;99923.31;10372542;28;20034;-73
2022/05/05 05:26:42;;;;;;;6.68;3.20;;;;;;;13.13;86.30;99920.94;10373124;28;20073;-71
2022/05/05 05:31:43;;;;;;;7.18;3.10;;;;;;;13.23;86.16;99937.41;10372853;28;20038;-72
2022/05/05 05:36:44;;;;;;;26.25;3.95;;;;;;;12.50;86.15;99829.41;10372010;28;20128;-75
2022/05/05 05:41:45;;;;;;;11.80;4.45;;;;;;;12.97;85.92;99894.53;10372094;28;20072;-72
2022/05/05 05:46:46;;;;;;;8.20;4.20;;;;;;;12.71;85.86;99864.03;10371506;28;20506;-72
2022/05/05 05:51:47;;;;;;;14.05;5.15;;;;;;;12.52;85.75;99825.53;10369698;28;20088;-72
2022/05/05 05:56:47;;;;;;;10.45;4.32;;;;;;;12.19;85.74;99773.84;10331643;28;20498;-75
2022/05/05 06:07:07;;;;;;;11.32;4.65;;;;;;;13.25;85.85;99966.56;10330809;28;20499;-77
2022/05/05 06:12:09;;;;;;;13.95;3.67;;;;;;;13.45;86.16;99953.34;10332220;28;20038;-74
2022/05/05 06:17:10;;;;;;;11.65;5.32;;;;;;;13.19;85.60;99916.63;10348812;28;20493;-72
2022/05/05 06:22:11;;;;;;;15.65;5.28;;;;;;;13.32;85.96;99915.94;10365396;28;20058;-78
2022/05/05 06:27:11;;;;;;;14.80;5.68;;;;;;;13.20;85.60;99888.97;10371182;28;20154;-74
2022/05/05 06:32:12;;;;;;;20.40;7.53;;;;;;;13.56;86.18;99941.31;10371787;28;20410;-74
2022/05/05 06:37:13;;;;;;;29.88;8.52;;;;;;;13.86;85.82;99968.56;10378315;28;20067;-74
2022/05/05 06:42:14;;;;;;;24.13;7.82;;;;;;;13.05;85.47;99830.41;10377740;28;20072;-74
2022/05/05 06:47:16;;;;;;;24.08;8.88;;;;;;;13.57;85.30;99934.94;10379041;28;20412;-75
2022/05/05 06:52:16;;;;;;;19.55;8.15;;;;;;;13.76;85.47;99955.59;10379151;28;20049;-71
2022/05/05 06:57:17;;;;;;;10.68;5.53;;;;;;;13.69;84.44;99936.84;10378733;28;20048;-71
2022/05/05 07:02:18;;;;;;;9.43;3.88;;;;;;;14.02;84.25;99980.75;10360817;28;20134;-72
2022/05/05 07:07:21;;;;;;;16.02;7.63;;;;;;;13.95;83.33;99934.50;10378605;28;20196;-72
2022/05/05 07:12:22;;;;;;;12.18;6.28;;;;;;;13.41;83.40;99829.38;10377610;28;20042;-71
2022/05/05 07:17:24;;;;;;;15.30;5.65;;;;;;;14.42;83.76;99978.19;10377335;28;20054;-71
2022/05/05 07:22:24;;;;;;;11.20;3.65;;;;;;;13.89;83.75;99882.72;10377072;28;20543;-72
2022/05/05 07:27:25;;;;;;;20.35;5.00;;;;;;;14.41;83.82;99985.41;10377246;28;20065;-72
2022/05/05 07:32:26;;;;;;;8.77;3.50;;;;;;;13.50;83.79;99814.84;10377007;28;20080;-72
2022/05/05 07:37:27;;;;;;;10.20;2.85;;;;;;;14.55;83.96;99987.13;10377737;28;20486;-71
2022/05/05 07:42:28;;;;;;;12.73;4.63;;;;;;;14.60;83.93;100013.25;10376411;28;20084;-71
2022/05/05 07:47:29;;;;;;;14.90;4.30;;;;;;;14.60;83.78;99999.88;10376312;28;20045;-71
2022/05/05 07:52:29;;;;;;;12.38;5.10;;;;;;;14.47;83.21;99973.91;10376540;28;20120;-69
2022/05/05 07:57:30;;;;;;;8.75;3.28;;;;;;;13.06;82.22;99751.22;10376172;28;20049;-71
2022/05/05 08:02:31;;;;;;;12.20;4.55;;;;;;;13.63;81.43;99862.91;10376267;28;20073;-70
2022/05/05 08:07:32;;;;;;;8.68;4.03;;;;;;;13.17;81.65;99766.66;10375806;28;20050;-70
2022/05/05 08:12:32;;;;;;;18.33;6.78;;;;;;;13.76;81.57;99855.97;10375394;28;20104;-70
2022/05/05 08:17:34;;;;;;;8.73;3.17;;;;;;;13.96;81.40;99896.91;10375513;28;20498;-70
2022/05/05 08:22:35;;;;;;;15.02;5.22;;;;;;;14.59;81.70;99999.03;10374788;28;20141;-70
2022/05/05 08:32:54;;;;;;;13.20;3.58;;;;;;;14.79;81.43;99990.25;10374658;28;20132;-71
2022/05/05 08:37:56;;;;;;;10.57;3.35;;;;;;;14.79;81.69;100004.44;10374298;28;20129;-73
2022/05/05 08:42:57;;;;;;;7.65;3.70;;;;;;;14.81;81.81;99981.00;10374011;28;20539;-72
2022/05/05 08:47:59;;;;;;;8.77;3.35;;;;;;;14.78;81.61;99989.44;10375167;28;20137;-72
2022/05/05 08:53:02;;;;;;;14.88;4.22;;;;;;;14.06;81.54;99876.00;10374939;28;20034;-72
2022/05/05 08:58:03;;;;;;;12.73;4.32;;;;;;;14.87;81.42;99995.41;10373366;28;20037;-73
2022/05/05 09:03:04;;;;;;;10.75;5.75;;;;;;;14.36;81.29;99897.84;10374137;28;20091;-71
2022/05/05 09:08:05;;;;;;;8.43;5.18;;;;;;;15.02;81.76;99988.00;10374351;28;20037;-72
2022/05/05 09:13:06;;;;;;;11.30;5.15;;;;;;;14.32;81.55;99856.50;10373183;28;20421;-72
2022/05/05 09:18:14;;;;;;;9.68;4.88;;;;;;;15.20;82.45;99970.50;10373849;28;20081;-73
2022/05/05 09:23:36;;;;;;;17.40;5.00;;;;;;;15.26;83.05;99964.31;10373286;28;20533;-72
2022/05/05 09:28:37;;;;;;;9.63;4.65;;;;;;;14.49;81.73;99845.44;10359226;28;20049;-73
2022/05/05 09:33:43;;;;;;;6.78;4.30;;;;;;;14.91;81.44;99920.94;10373027;28;20042;-73
2022/05/05 09:38:50;;;;;;;15.13;4.65;;;;;;;14.69;81.65;99870.34;10372855;28;20517;-72
2022/05/05 09:43:54;;;;;;;8.35;4.22;;;;;;;15.37;80.48;99982.41;10364791;28;20037;-72
2022/05/05 09:49:12;;;;;;;7.40;4.90;;;;;;;13.45;80.74;99659.88;10372225;28;20046;-72
2022/05/05 09:59:40;;;;;;;10.48;6.57;;;;;;;15.06;80.54;99925.03;10371912;28;20042;-72
2022/05/05 10:04:48;;;;;;;11.07;7.38;;;;;;;14.74;80.93;99881.22;10372469;28;20437;-72
2022/05/05 10:09:52;;;;;;;11.98;6.45;;;;;;;13.91;80.52;99731.97;10376744;28;20488;-72
2022/05/05 10:14:53;;;;;;;15.05;6.43;;;;;;;15.43;81.15;99994.13;10380347;28;20049;-73
2022/05/05 10:19:55;;;;;;;7.93;5.45;;;;;;;15.05;81.70;99933.25;10378386;28;20147;-75
2022/05/05 10:25:05;;;;;;;8.63;5.35;;;;;;;14.55;82.06;99864.16;10380322;28;20564;-72
2022/05/05 10:30:14;;;;;;;10.18;5.50;;;;;;;14.99;82.42;99934.09;10362342;28;20410;-75
2022/05/05 10:35:23;;;;;;;9.27;5.65;;;;;;;13.95;82.96;99764.44;10379363;28;20400;-71
2022/05/05 10:40:43;;;;;;;12.15;5.45;;;;;;;15.15;82.78;99972.97;10379169;28;20072;-72
2022/05/05 10:45:44;;;;;;;6.97;4.82;;;;;;;14.07;82.97;99837.59;10379003;28;20046;-71
2022/05/05 10:50:58;;;;;;;7.30;5.03;;;;;;;13.93;84.28;99823.38;10379375;28;20037;-72
2022/05/05 10:56:02;;;;;;;9.82;5.32;;;;;;;14.79;85.06;99976.88;10378598;28;20100;-73
2022/05/05 11:01:08;;;;;;;;;;;;;;;14.90;84.06;99978.09;10380071;28;20034;-73
2022/05/05 11:06:15;;;;;;;11.38;5.35;;;;;;;14.64;85.67;99968.22;10379113;28;20016;-72
2022/05/05 11:22:14;;;;;;;8.73;4.10;;;;;;;14.77;84.77;99974.38;10298849;28;20050;-72
2022/05/05 11:27:20;;;;;;;9.63;4.50;;;;;;;13.90;84.83;99833.63;10337285;28;20471;-71
2022/05/05 11:32:28;;;;;;;7.22;3.42;;;;;;;14.66;84.64;99964.31;10337731;28;20038;-73
2022/05/05 11:37:30;;;;;;;8.82;3.25;;;;;;;14.34;84.04;99931.94;10336989;28;20395;-73
2022/05/05 11:44:14;;;;;;;9.43;3.45;;;;;;;14.31;83.94;99947.56;10336821;28;20448;-72
2022/05/05 11:47:52;;;;;;;7.75;3.10;;;;;;;14.00;83.35;99916.88;10335926;28;20038;-72
2022/05/05 11:52:53;;;;;;;10.48;3.22;;;;;;;13.61;82.56;99867.66;10336132;28;20578;-76
2022/05/05 11:57:54;;;;;;;9.85;3.22;;;;;;;13.19;81.31;99810.78;10336273;28;20092;-71
2022/05/05 12:02:56;;;;;;;7.63;2.42;;;;;;;13.77;80.96;99903.84;10335444;28;20042;-72
2022/05/05 12:07:57;;;;;;;9.15;2.40;;;;;;;14.24;81.22;99984.97;10335792;28;20425;-73
2022/05/05 12:13:03;;;;;;;8.18;2.60;;;;;;;13.55;81.15;99892.47;10335630;28;20133;-75
2022/05/05 12:18:15;;;;;;;10.18;2.55;;;;;;;14.01;81.21;99979.94;10335851;28;20494;-74
2022/05/05 12:23:20;;;;;;;9.40;2.50;;;;;;;14.02;81.66;100016.28;10336086;28;20062;-73
2022/05/05 12:28:27;;;;;;;6.90;2.70;;;;;;;13.77;82.22;99999.13;10357607;28;20049;-74
2022/05/05 12:33:37;;;;;;;13.75;2.70;;;;;;;13.76;83.59;100003.66;10319474;28;20053;-73
2022/05/05 12:38:38;;;;;;;11.30;2.85;;;;;;;13.68;83.03;99995.78;10372494;28;20038;-72
2022/05/05 12:43:40;;;;;;;8.88;2.85;;;;;;;13.65;83.05;100002.34;10353602;28;20456;-76
2022/05/05 12:48:40;;;;;;;7.82;2.42;;;;;;;13.54;82.92;100010.06;10358603;28;20450;-73
2022/05/05 13:04:23;;;;;;;4.20;1.98;;;;;;;12.94;83.47;99930.41;10362580;28;20497;-76
2022/05/05 13:09:24;;;;;;;10.02;2.70;;;;;;;13.07;83.68;99971.53;10378127;28;20095;-76
2022/05/05 13:14:25;;;;;;;10.25;2.88;;;;;;;13.46;84.41;100029.72;10366744;28;20046;-75
2022/05/05 13:19:26;;;;;;;6.07;2.17;;;;;;;13.29;84.32;99988.34;10360382;28;20050;-75
2022/05/05 13:24:27;;;;;;;8.57;2.83;;;;;;;12.81;84.09;99910.84;10373920;28;20053;-76
2022/05/05 13:29:28;;;;;;;7.85;2.88;;;;;;;13.54;84.48;100028.75;10372374;28;20453;-73
2022/05/05 13:34:29;;;;;;;5.53;2.45;;;;;;;12.23;84.44;99831.03;10362612;28;20112;-74
2022/05/05 13:39:30;;;;;;;7.68;2.55;;;;;;;12.69;84.32;99911.38;10361976;28;20052;-75
2022/05/05 13:44:32;;;;;;;5.05;2.47;;;;;;;13.37;85.09;100038.88;10365908;28;20144;-73
2022/05/05 13:49:33;;;;;;;8.77;2.92;;;;;;;12.82;85.87;99952.47;10353237;28;20040;-74
2022/05/05 13:54:33;;;;;;;6.10;3.15;;;;;;;13.21;86.06;100034.63;10349069;28;20050;-73
2022/05/05 13:59:34;;;;;;;9.65;3.50;;;;;;;13.36;86.03;100053.25;10368292;28;20045;-74
2022/05/05 14:04:35;;;;;;;9.27;3.85;;;;;;;13.40;85.82;100057.16;10371894;28;20042;-73
2022/05/05 14:14:55;;;;;;;8.30;2.85;;;;;;;13.04;85.98;100015.41;10371206;28;20046;-72
2022/05/05 14:19:56;;;;;;;6.80;3.10;;;;;;;12.58;85.82;99930.53;10373030;28;20108;-73
2022/05/05 14:24:57;;;;;;;6.97;3.67;;;;;;;13.20;86.12;100033.00;10371859;28;20494;-74
2022/05/05 14:29:58;;;;;;;6.90;4.15;;;;;;;13.31;86.23;100063.66;10371404;28;20501;-74
2022/05/05 14:34:58;;;;;;;8.60;5.40;;;;;;;11.99;86.89;99857.00;10367866;28;20045;-78
2022/05/05 14:39:59;;;;;;;7.07;5.70;;;;;;;13.36;87.47;100071.94;10363091;28;20042;-74
2022/05/05 14:50:38;;;;;;;8.45;7.05;;;;;;;13.36;90.29;100103.94;10761538;23;20055;-72
2022/05/05 14:55:59;;;;;;;8.40;7.25;;;;;;;12.53;91.65;99994.22;10473195;27;20217;-72
2022/05/05 15:01:00;;;;;;;11.48;8.88;;;;;;;13.05;92.91;100093.56;10484290;28;20040;-73
2022/05/05 15:06:01;;;;;;;14.15;8.23;;;;;;;12.93;94.59;100095.91;10477093;28;20171;-73
2022/05/05 15:11:02;;;;;;;10.95;8.60;;;;;;;12.80;96.07;100088.59;10483251;28;20033;-73
2022/05/05 15:16:03;;;;;;;10.35;8.00;;;;;;;12.90;97.16;100134.44;10486237;28;20519;-72
2022/05/05 15:21:04;;;;;;;11.60;8.63;;;;;;;12.74;97.79;100113.31;10486138;28;20040;-71
2022/05/05 15:26:05;;;;;;;16.20;9.50;;;;;;;12.46;98.60;100103.38;10482067;28;20055;-76
2022/05/05 15:31:05;;;;;;;11.50;9.80;;;;;;;12.59;99.09;100158.66;10474347;28;20041;-71
2022/05/05 15:36:07;;;;;;;14.90;9.43;;;;;;;12.39;99.54;100134.44;10462811;28;20103;-71
2022/05/05 15:41:08;;;;;;;10.43;8.45;;;;;;;12.08;99.91;100119.50;10476371;28;20492;-71
2022/05/05 15:46:09;;;;;;;10.77;8.15;;;;;;;12.22;100.00;100149.78;10473807;28;20051;-72
2022/05/05 15:51:12;;;;;;;8.23;6.53;;;;;;;11.90;100.00;100128.81;10483389;28;20040;-74
2022/05/05 15:56:12;;;;;;;10.07;6.72;;;;;;;11.84;100.00;100122.34;10483088;28;20067;-76
2022/05/05 16:01:13;;;;;;;8.68;5.80;;;;;;;11.94;100.00;100154.09;10464871;28;20063;-75
2022/05/05 16:06:14;;;;;;;10.82;6.15;;;;;;;11.94;100.00;100167.38;10460260;28;20076;-73
2022/05/05 16:11:15;;;;;;;9.43;5.53;;;;;;;11.99;100.00;100187.09;10454040;28;20048;-72
2022/05/05 16:16:16;;;;;;;10.80;6.05;;;;;;;11.63;100.00;100139.00;10455267;28;20086;-71
2022/05/05 16:21:16;;;;;;;8.27;5.40;;;;;;;11.85;100.00;100170.13;10452260;28;20120;-72
2022/05/05 16:31:37;;;;;;;8.40;5.45;;;;;;;11.90;100.00;100204.16;10447182;28;20147;-73
2022/05/05 16:36:40;;;;;;;8.27;5.97;;;;;;;11.78;100.00;100187.75;10449670;28;20044;-70
2022/05/05 16:41:42;;;;;;;6.50;5.20;;;;;;;10.39;100.00;99965.53;10450326;28;20068;-71
2022/05/05 16:46:43;;;;;;;12.65;7.55;;;;;;;11.76;100.00;100199.63;10456444;28;20037;-71
2022/05/05 16:51:50;;;;;;;10.70;6.28;;;;;;;11.45;100.00;100162.44;10454094;28;20267;-72
2022/05/05 16:56:51;;;;;;;9.18;5.15;;;;;;;10.90;100.00;100074.75;10457598;28;20407;-74
2022/05/05 17:01:52;;;;;;;8.38;5.75;;;;;;;11.47;100.00;100168.41;10457100;28;20040;-76
2022/05/05 17:06:53;;;;;;;7.55;5.63;;;;;;;11.76;100.00;100231.56;10452313;28;20064;-72
2022/05/05 17:11:54;;;;;;;6.97;5.60;;;;;;;11.15;100.00;100135.72;10456994;28;20521;-75
2022/05/05 17:16:55;;;;;;;8.43;5.50;;;;;;;11.47;100.00;100222.44;10453849;28;20053;-70
2022/05/05 17:21:57;;;;;;;12.98;6.47;;;;;;;11.76;100.00;100263.50;10456190;28;20067;-70
2022/05/05 17:26:59;;;;;;;8.57;6.20;;;;;;;11.00;100.00;100145.47;10457358;28;20099;-72
2022/05/05 17:32:00;;;;;;;9.07;6.22;;;;;;;11.75;100.00;100289.25;10449716;28;20479;-71
2022/05/05 17:37:02;;;;;;;8.40;6.55;;;;;;;10.99;100.00;100151.78;10440262;28;20045;-72
2022/05/05 17:42:04;;;;;;;12.88;8.73;;;;;;;11.48;100.00;100249.88;10454275;28;20033;-71
2022/05/05 17:52:25;;;;;;;14.15;9.57;;;;;;;11.57;100.00;100281.56;10451387;28;20534;-71
2022/05/05 17:57:26;;;;;;;11.00;7.75;;;;;;;10.96;100.00;100179.53;10450851;28;20538;-71
2022/05/05 18:02:27;;;;;;;13.95;10.63;;;;;;;11.67;100.00;100299.97;10449032;28;20040;-71
2022/05/05 18:07:29;;;;;;;12.73;9.90;;;;;;;10.79;100.00;100157.53;10456105;28;20493;-71
2022/05/05 18:12:32;;;;;;;15.80;11.45;;;;;;;11.58;100.00;100285.88;10452659;28;20049;-71
2022/05/05 18:17:33;;;;;;;16.23;12.48;;;;;;;11.60;100.00;100291.03;10453679;28;20033;-72
2022/05/05 18:27:54;;;;;;;15.98;12.45;;;;;;;11.55;100.00;100296.88;10440256;28;20190;-72
2022/05/05 18:32:55;;;;;;;13.88;11.52;;;;;;;11.49;100.00;100278.97;10454366;28;20548;-69
2022/05/05 18:37:57;;;;;;;11.65;10.48;;;;;;;11.57;100.00;100289.53;10454403;28;20068;-70
2022/05/05 18:42:57;;;;;;;16.33;11.70;;;;;;;10.56;100.00;100125.63;10454830;28;20041;-69
2022/05/05 18:47:59;;;;;;;13.35;10.90;;;;;;;11.69;100.00;100302.44;10454584;28;20041;-71
2022/05/05 18:53:00;;;;;;;13.27;10.52;;;;;;;11.68;100.00;100300.78;10453570;28;20068;-71
2022/05/05 18:58:00;;;;;;;13.98;11.18;;;;;;;11.66;100.00;100317.75;10453951;28;20083;-70
2022/05/05 19:03:02;;;;;;;11.27;9.73;;;;;;;11.56;100.00;100281.75;10454242;28;20064;-73
2022/05/05 19:08:03;;;;;;;12.27;10.63;;;;;;;11.48;100.00;100263.16;10452791;28;20480;-72
2022/05/05 19:13:04;;;;;;;10.38;8.43;;;;;;;11.49;100.00;100257.69;10451303;28;20072;-75
2022/05/05 19:18:05;;;;;;;11.98;8.23;;;;;;;11.38;100.00;100239.47;10453206;28;20077;-72
2022/05/05 19:23:06;;;;;;;13.23;6.07;;;;;;;10.87;100.00;100162.00;10452936;28;20116;-69
2022/05/05 19:28:14;;;;;;;6.97;5.95;;;;;;;10.11;100.00;100057.22;10453836;28;20079;-71
2022/05/05 19:33:14;;;;;;;8.70;5.88;;;;;;;11.16;100.00;100276.47;10453466;28;20056;-72
2022/05/05 19:38:15;;;;;;;8.48;5.90;;;;;;;11.39;100.00;100303.09;10453727;28;20048;-70
2022/05/05 19:43:16;;;;;;;7.88;4.85;;;;;;;10.42;100.00;100144.94;10461869;28;20074;-70
2022/05/05 19:48:18;;;;;;;8.20;5.35;;;;;;;10.61;100.00;100175.56;10461210;28;20079;-70
2022/05/05 19:53:19;;;;;;;7.43;4.68;;;;;;;11.36;100.00;100314.09;10460622;28;20179;-73
2022/05/05 20:03:46;;;;;;;7.18;4.53;;;;;;;10.81;100.00;100203.38;10460923;28;20040;-69
2022/05/05 20:08:47;;;;;;;5.15;3.85;;;;;;;10.63;100.00;100173.56;10458636;28;20115;-70
2022/05/05 20:13:48;;;;;;;5.63;3.80;;;;;;;11.23;100.00;100278.44;10459675;28;20132;-69
2022/05/05 20:18:49;;;;;;;6.75;3.88;;;;;;;11.48;100.00;100309.22;10458612;28;20032;-71
2022/05/05 20:23:50;;;;;;;4.20;3.30;;;;;;;11.32;100.00;100290.69;10459283;28;20045;-72
2022/05/05 20:28:51;;;;;;;4.55;3.00;;;;;;;10.51;100.00;100154.50;10459258;28;20086;-71
2022/05/05 20:33:54;;;;;;;5.03;2.88;;;;;;;10.63;100.00;100169.06;10458291;28;20051;-73
2022/05/05 20:38:55;;;;;;;4.20;3.00;;;;;;;10.92;100.00;100213.63;10457625;28;20116;-71
2022/05/05 20:43:57;;;;;;;4.50;3.10;;;;;;;11.54;100.00;100315.66;10458633;28;20717;-72
2022/05/05 20:48:57;;;;;;;4.78;2.92;;;;;;;11.48;100.00;100305.72;10457526;28;20610;-70
2022/05/05 20:53:58;;;;;;;4.93;3.17;;;;;;;11.58;100.00;100323.13;10458298;28;20163;-70
2022/05/05 20:58:59;;;;;;;4.15;3.00;;;;;;;11.32;100.00;100278.22;10456679;28;20095;-72
2022/05/05 21:04:01;;;;;;;4.55;3.38;;;;;;;11.42;100.00;100297.44;10452014;28;20056;-70
2022/05/05 21:09:01;;;;;;;4.50;3.17;;;;;;;11.57;100.00;100310.00;10423562;28;20049;-70
2022/05/05 21:14:02;;;;;;;6.43;3.45;;;;;;;11.52;100.00;100304.41;10415861;28;20489;-74
2022/05/05 21:19:03;;;;;;;5.35;3.72;;;;;;;11.57;100.00;100318.78;10416030;28;20048;-70
2022/05/05 21:29:25;;;;;;;5.63;3.58;;;;;;;11.48;100.00;100301.22;10416311;28;20041;-71
2022/05/05 21:34:28;;;;;;;6.15;3.78;;;;;;;11.19;100.00;100254.03;10431458;28;20050;-70
2022/05/05 21:39:29;;;;;;;7.53;3.97;;;;;;;11.26;100.00;100275.44;10416022;28;20065;-74
2022/05/05 21:44:30;;;;;;;5.30;3.63;;;;;;;11.52;100.00;100317.69;10415638;28;20065;-70
2022/05/05 21:49:31;;;;;;;4.70;3.63;;;;;;;11.34;100.00;100284.19;10415181;28;20041;-73
2022/05/05 21:54:31;;;;;;;5.40;3.03;;;;;;;11.52;100.00;100318.53;10415510;28;20059;-69
2022/05/05 21:59:32;;;;;;;4.72;2.75;;;;;;;10.66;100.00;100173.22;10414737;28;20124;-71
2022/05/05 22:04:33;;;;;;;5.53;2.97;;;;;;;10.87;100.00;100215.97;10414228;28;20041;-70
2022/05/05 22:09:34;;;;;;;3.88;2.60;;;;;;;11.52;100.00;100315.03;10413037;28;20065;-70
2022/05/05 22:14:34;;;;;;;4.50;2.65;;;;;;;10.51;100.00;100144.72;10436123;28;20103;-70
2022/05/05 22:19:35;;;;;;;3.63;2.58;;;;;;;10.49;100.00;100144.06;10455952;28;20064;-73
2022/05/05 22:24:36;;;;;;;3.92;2.08;;;;;;;11.55;100.00;100328.81;10454722;28;20045;-71
2022/05/05 22:29:37;;;;;;;3.63;2.35;;;;;;;11.55;100.00;100335.97;10455181;28;20048;-71
2022/05/05 22:34:37;;;;;;;4.95;2.45;;;;;;;10.90;100.00;100218.28;10454899;28;20041;-71
2022/05/05 22:39:38;;;;;;;4.60;2.40;;;;;;;11.59;100.00;100326.63;10454826;28;20053;-72
2022/05/05 22:44:39;;;;;;;4.38;2.30;;;;;;;11.35;100.00;100299.16;10454979;28;20044;-70
2022/05/05 22:55:01;;;;;;;4.05;2.38;;;;;;;11.38;100.00;100304.13;10453703;28;20052;-71
2022/05/05 23:00:02;;;;;;;4.43;2.30;;;;;;;11.48;100.00;100317.19;10454478;28;20044;-70
2022/05/05 23:05:04;;;;;;;4.60;2.33;;;;;;;11.12;100.00;100282.31;10455172;28;20156;-70
2022/05/05 23:10:05;;;;;;;4.82;2.15;;;;;;;11.22;100.00;100292.72;10453969;28;20033;-72
2022/05/05 23:15:08;;;;;;;5.68;2.50;;;;;;;10.57;100.00;100191.00;10458594;28;20040;-71
2022/05/05 23:20:13;;;;;;;4.43;2.43;;;;;;;10.81;100.00;100231.78;10462708;28;20103;-71
2022/05/05 23:25:14;;;;;;;6.70;2.72;;;;;;;11.27;100.00;100320.44;10461056;28;20036;-70
2022/05/05 23:30:15;;;;;;;5.32;3.10;;;;;;;11.27;100.00;100309.00;10462781;28;20385;-70
2022/05/05 23:40:35;;;;;;;5.40;2.72;;;;;;;11.27;100.00;100325.78;10461962;28;20049;-71
2022/05/05 23:45:36;;;;;;;4.68;3.17;;;;;;;11.25;100.00;100330.44;10460897;28;20393;-72
2022/05/05 23:50:37;;;;;;;8.23;3.47;;;;;;;11.34;100.00;100342.72;10461691;28;20041;-70
2022/05/05 23:55:39;;;;;;;6.55;2.78;;;;;;;10.91;100.00;100267.75;10461409;28;20151;-72
